createdAt,value
2019-03-22T00:01:15.738Z,12.81
2019-03-22T00:04:22.186Z,12.45
2019-03-22T00:07:28.497Z,12.92
2019-03-22T00:10:34.771Z,13.09
2019-03-22T00:13:41.073Z,13.13
2019-03-22T00:16:47.368Z,12.63
2019-03-22T00:19:53.636Z,12.58
2019-03-22T00:22:59.921Z,12.46
2019-03-22T00:26:06.331Z,12.52
2019-03-22T00:29:12.649Z,12.59
2019-03-22T00:32:18.986Z,12.62
2019-03-22T00:35:25.277Z,12.50
2019-03-22T00:38:31.612Z,12.65
2019-03-22T00:41:37.935Z,12.73
2019-03-22T00:44:44.359Z,12.73
2019-03-22T00:47:50.745Z,12.89
2019-03-22T00:50:57.030Z,12.76
2019-03-22T00:54:03.412Z,12.74
2019-03-22T00:57:09.680Z,12.51
2019-03-22T01:00:16.256Z,12.71
2019-03-22T01:03:22.532Z,12.58
2019-03-22T01:06:28.808Z,12.59
2019-03-22T01:09:35.044Z,12.46
2019-03-22T01:12:41.734Z,12.46
2019-03-22T01:15:47.992Z,12.58
2019-03-22T01:18:54.346Z,12.62
2019-03-22T01:22:00.603Z,12.54
2019-03-22T01:25:07.736Z,12.39
2019-03-22T01:28:14.051Z,12.41
2019-03-22T01:31:21.480Z,12.59
2019-03-22T01:34:28.751Z,12.62
2019-03-22T01:37:35.163Z,12.45
2019-03-22T01:40:41.498Z,12.47
2019-03-22T01:43:47.903Z,12.57
2019-03-22T01:46:54.223Z,12.53
2019-03-22T01:50:00.532Z,12.31
2019-03-22T01:53:07.100Z,12.14
2019-03-22T01:56:13.365Z,12.11
2019-03-22T01:59:19.707Z,12.25
2019-03-22T02:02:25.964Z,12.12
2019-03-22T02:05:32.349Z,12.03
2019-03-22T02:08:38.632Z,11.58
2019-03-22T02:11:44.968Z,11.93
2019-03-22T02:14:51.330Z,11.94
2019-03-22T02:17:57.650Z,11.85
2019-03-22T02:21:04.193Z,12.14
2019-03-22T02:24:10.498Z,12.03
2019-03-22T02:27:16.932Z,12.14
2019-03-22T02:30:23.326Z,12.21
2019-03-22T02:33:29.731Z,12.18
2019-03-22T02:36:35.999Z,12.19
2019-03-22T02:39:42.489Z,11.99
2019-03-22T02:42:48.939Z,11.91
2019-03-22T02:45:55.207Z,11.89
2019-03-22T02:49:01.505Z,11.65
2019-03-22T02:52:07.852Z,11.75
2019-03-22T02:55:14.310Z,11.90
2019-03-22T02:58:21.478Z,11.98
2019-03-22T03:01:28.901Z,11.80
2019-03-22T03:04:35.202Z,11.15
2019-03-22T03:07:41.478Z,11.63
2019-03-22T03:10:47.827Z,12.06
2019-03-22T03:13:54.141Z,11.81
2019-03-22T03:17:00.668Z,11.71
2019-03-22T03:20:07.819Z,11.54
2019-03-22T03:23:14.071Z,11.57
2019-03-22T03:26:20.442Z,11.84
2019-03-22T03:29:26.753Z,11.42
2019-03-22T03:32:33.015Z,10.94
2019-03-22T03:35:39.494Z,10.86
2019-03-22T03:38:45.889Z,11.12
2019-03-22T03:41:52.233Z,11.35
2019-03-22T03:44:59.522Z,11.58
2019-03-22T03:48:07.220Z,11.45
2019-03-22T03:51:13.545Z,11.68
2019-03-22T03:54:19.826Z,11.22
2019-03-22T03:57:26.113Z,11.54
2019-03-22T04:00:32.521Z,11.54
2019-03-22T04:03:38.856Z,11.73
2019-03-22T04:06:45.111Z,11.43
2019-03-22T04:09:51.409Z,11.39
2019-03-22T04:12:57.661Z,11.16
2019-03-22T04:16:04.055Z,11.28
2019-03-22T04:19:10.533Z,10.86
2019-03-22T04:22:16.870Z,11.43
2019-03-22T04:25:23.173Z,10.77
2019-03-22T04:28:29.507Z,11.29
2019-03-22T04:31:35.887Z,11.26
2019-03-22T04:34:42.285Z,11.30
2019-03-22T04:37:48.632Z,11.46
2019-03-22T04:40:55.043Z,11.46
2019-03-22T04:44:01.477Z,11.82
2019-03-22T04:47:09.710Z,12.27
2019-03-22T04:50:16.280Z,11.49
2019-03-22T04:53:24.894Z,11.84
2019-03-22T04:56:34.572Z,12.15
2019-03-22T04:59:43.660Z,11.91
2019-03-22T05:02:51.041Z,12.27
2019-03-22T05:05:59.969Z,11.99
2019-03-22T05:09:09.820Z,11.62
2019-03-22T05:12:19.024Z,11.65
2019-03-22T05:15:26.289Z,11.04
2019-03-22T05:18:34.353Z,11.89
2019-03-22T05:21:41.407Z,11.47
2019-03-22T05:24:49.484Z,12.08
2019-03-22T05:27:57.696Z,12.27
2019-03-22T05:31:46.142Z,12.25
2019-03-22T05:34:52.417Z,12.64
2019-03-22T05:37:59.021Z,12.60
2019-03-22T05:41:05.315Z,12.71
2019-03-22T05:44:11.588Z,13.10
2019-03-22T05:47:17.907Z,13.27
2019-03-22T05:50:24.221Z,13.46
2019-03-22T05:53:30.539Z,13.59
2019-03-22T05:56:36.871Z,13.62
2019-03-22T05:59:43.258Z,13.35
2019-03-22T06:02:49.589Z,13.04
2019-03-22T06:05:55.973Z,13.33
2019-03-22T06:09:02.359Z,13.39
2019-03-22T06:12:08.882Z,13.13
2019-03-22T06:15:15.539Z,13.14
2019-03-22T06:18:22.001Z,13.00
2019-03-22T06:21:28.413Z,13.52
2019-03-22T06:24:34.682Z,13.52
2019-03-22T06:27:40.968Z,13.74
2019-03-22T06:30:47.518Z,13.84
2019-03-22T06:33:53.800Z,13.51
2019-03-22T06:37:01.144Z,13.62
2019-03-22T06:40:07.755Z,14.49
2019-03-22T06:43:14.190Z,14.99
2019-03-22T06:46:20.545Z,15.58
2019-03-22T06:49:26.832Z,15.58
2019-03-22T06:52:33.102Z,15.95
2019-03-22T06:55:39.492Z,16.47
2019-03-22T06:58:45.804Z,16.73
2019-03-22T07:01:52.075Z,17.08
2019-03-22T07:04:58.394Z,16.59
2019-03-22T07:08:04.669Z,17.22
2019-03-22T07:11:10.964Z,17.05
2019-03-22T07:14:17.317Z,17.17
2019-03-22T07:17:24.055Z,17.54
2019-03-22T07:20:31.520Z,17.22
2019-03-22T07:23:37.797Z,17.61
2019-03-22T07:26:44.067Z,18.05
2019-03-22T07:29:50.384Z,18.36
2019-03-22T07:32:56.767Z,17.86
2019-03-22T07:36:03.059Z,18.38
2019-03-22T07:39:10.034Z,18.70
2019-03-22T07:42:17.634Z,18.16
2019-03-22T07:45:24.082Z,18.46
2019-03-22T07:48:30.371Z,19.34
2019-03-22T07:51:36.704Z,18.90
2019-03-22T07:54:42.983Z,19.58
2019-03-22T07:57:49.384Z,18.54
2019-03-22T08:00:55.801Z,19.30
2019-03-22T08:04:02.196Z,19.57
2019-03-22T08:07:08.455Z,19.77
2019-03-22T08:10:14.958Z,20.04
2019-03-22T08:13:22.305Z,19.99
2019-03-22T08:16:28.644Z,19.65
2019-03-22T08:19:34.913Z,19.90
2019-03-22T08:22:41.290Z,20.31
2019-03-22T08:25:47.656Z,20.64
2019-03-22T08:28:53.927Z,20.87
2019-03-22T08:32:00.321Z,20.68
2019-03-22T08:35:06.740Z,20.06
2019-03-22T08:38:13.144Z,20.53
2019-03-22T08:41:19.512Z,21.03
2019-03-22T08:44:25.828Z,21.24
2019-03-22T08:47:34.123Z,21.48
2019-03-22T08:50:40.175Z,20.97
2019-03-22T08:53:55.094Z,21.54
2019-03-22T08:56:54.588Z,21.33
2019-03-22T09:00:00.926Z,21.02
2019-03-22T09:03:07.491Z,21.74
2019-03-22T09:06:15.029Z,20.83
2019-03-22T09:09:21.307Z,21.90
2019-03-22T09:12:27.873Z,21.63
2019-03-22T09:15:41.025Z,21.58
2019-03-22T09:18:42.090Z,21.41
2019-03-22T09:21:48.463Z,21.79
2019-03-22T09:24:54.868Z,22.10
2019-03-22T09:28:01.271Z,22.17
2019-03-22T09:31:11.187Z,21.69
2019-03-22T09:34:15.544Z,22.41
2019-03-22T09:37:22.039Z,21.99
2019-03-22T09:40:28.289Z,22.09
2019-03-22T09:43:34.677Z,21.54
2019-03-22T09:46:40.933Z,21.76
2019-03-22T09:49:47.229Z,22.17
2019-03-22T09:52:53.562Z,22.82
2019-03-22T09:55:59.853Z,22.81
2019-03-22T09:59:06.523Z,22.54
2019-03-22T10:02:12.960Z,22.44
2019-03-22T10:05:19.478Z,22.07
2019-03-22T10:08:25.826Z,22.61
2019-03-22T10:11:32.164Z,22.10
2019-03-22T10:14:38.572Z,23.13
2019-03-22T10:17:44.814Z,23.13
2019-03-22T10:20:51.146Z,22.31
2019-03-22T10:23:57.389Z,20.98
2019-03-22T10:27:05.323Z,19.88
2019-03-22T10:30:11.973Z,21.01
2019-03-22T10:33:22.982Z,21.09
2019-03-22T10:36:26.359Z,21.78
2019-03-22T10:39:32.764Z,22.51
2019-03-22T10:42:39.170Z,22.73
2019-03-22T10:45:45.426Z,22.99
2019-03-22T10:48:51.701Z,23.05
2019-03-22T10:51:58.347Z,22.90
2019-03-22T10:55:23.450Z,23.19
2019-03-22T10:58:20.726Z,22.72
2019-03-22T11:01:21.299Z,22.82
2019-03-22T11:04:27.663Z,23.04
2019-03-22T11:07:34.165Z,22.98
2019-03-22T11:10:40.636Z,23.27
2019-03-22T11:13:46.945Z,23.38
2019-03-22T11:16:53.216Z,23.40
2019-03-22T11:19:59.538Z,23.00
2019-03-22T11:23:06.131Z,22.61
2019-03-22T11:26:12.534Z,22.17
2019-03-22T11:29:18.828Z,22.38
2019-03-22T11:32:25.221Z,22.69
2019-03-22T11:35:31.643Z,22.56
2019-03-22T11:38:38.005Z,23.27
2019-03-22T11:41:44.370Z,23.40
2019-03-22T11:44:50.861Z,22.64
2019-03-22T11:47:57.844Z,23.03
2019-03-22T11:51:04.540Z,23.54
2019-03-22T11:54:10.911Z,23.00
2019-03-22T11:57:17.252Z,22.95
2019-03-22T12:00:24.517Z,23.17
2019-03-22T12:03:30.872Z,23.67
2019-03-22T12:06:37.497Z,23.09
2019-03-22T12:09:43.835Z,23.09
2019-03-22T12:12:50.533Z,23.41
2019-03-22T12:15:57.028Z,23.09
2019-03-22T12:19:03.526Z,23.08
2019-03-22T12:22:09.776Z,22.96
2019-03-22T12:25:18.048Z,23.25
2019-03-22T12:28:24.413Z,23.08
2019-03-22T12:31:31.787Z,23.31
2019-03-22T12:34:38.122Z,23.08
2019-03-22T12:37:44.862Z,22.82
2019-03-22T12:40:51.116Z,22.97
2019-03-22T12:43:57.387Z,23.05
2019-03-22T12:47:03.843Z,23.04
2019-03-22T12:50:13.351Z,22.99
2019-03-22T12:53:19.777Z,23.06
2019-03-22T12:56:27.165Z,23.06
2019-03-22T12:59:33.429Z,23.09
2019-03-22T13:02:42.390Z,22.99
2019-03-22T13:05:48.942Z,22.94
2019-03-22T13:08:55.202Z,22.84
2019-03-22T13:12:01.496Z,22.88
2019-03-22T13:15:08.424Z,22.97
2019-03-22T13:18:14.754Z,23.28
2019-03-22T13:21:21.299Z,22.87
2019-03-22T13:24:27.558Z,22.69
2019-03-22T13:27:33.852Z,22.71
2019-03-22T13:30:40.116Z,22.76
2019-03-22T13:33:46.484Z,23.01
2019-03-22T13:36:52.792Z,23.32
2019-03-22T13:39:59.218Z,23.47
2019-03-22T13:43:05.607Z,22.76
2019-03-22T13:46:11.979Z,22.76
2019-03-22T13:49:18.366Z,22.50
2019-03-22T13:52:24.687Z,21.24
2019-03-22T13:55:31.067Z,21.66
2019-03-22T13:58:37.359Z,21.85
2019-03-22T14:01:44.716Z,22.13
2019-03-22T14:04:51.067Z,22.02
2019-03-22T14:07:57.418Z,21.78
2019-03-22T14:11:03.715Z,21.63
2019-03-22T14:14:10.074Z,21.23
2019-03-22T14:17:17.594Z,21.47
2019-03-22T14:20:23.946Z,21.46
2019-03-22T14:23:30.231Z,21.39
2019-03-22T14:26:36.774Z,21.53
2019-03-22T14:29:43.051Z,21.63
2019-03-22T14:32:49.449Z,21.90
2019-03-22T14:35:55.724Z,21.60
2019-03-22T14:39:02.079Z,21.84
2019-03-22T14:42:10.140Z,21.82
2019-03-22T14:45:16.720Z,21.63
2019-03-22T14:48:24.088Z,21.96
2019-03-22T14:51:30.373Z,21.99
2019-03-22T14:54:36.770Z,21.90
2019-03-22T14:57:48.978Z,22.04
2019-03-22T15:00:51.282Z,21.51
2019-03-22T15:03:57.554Z,21.24
2019-03-22T15:07:03.847Z,21.01
2019-03-22T15:10:10.539Z,20.41
2019-03-22T15:13:17.466Z,20.71
2019-03-22T15:16:58.751Z,20.76
2019-03-22T15:20:27.340Z,20.41
2019-03-22T15:24:04.791Z,20.13
2019-03-22T15:27:40.303Z,19.76
2019-03-22T15:31:04.254Z,19.90
2019-03-22T15:34:39.601Z,20.05
2019-03-22T15:37:59.824Z,19.97
2019-03-22T15:41:06.192Z,19.54
2019-03-22T15:44:12.818Z,19.69
2019-03-22T15:47:19.190Z,19.43
2019-03-22T15:50:25.759Z,19.46
2019-03-22T15:53:32.160Z,19.28
2019-03-22T15:56:38.576Z,19.26
2019-03-22T15:59:44.945Z,19.09
2019-03-22T16:02:51.321Z,19.21
2019-03-22T16:05:57.780Z,19.15
2019-03-22T16:09:04.795Z,19.02
2019-03-22T16:12:11.246Z,18.98
2019-03-22T16:15:17.987Z,19.17
2019-03-22T16:18:24.313Z,18.85
2019-03-22T16:21:30.664Z,18.68
2019-03-22T16:24:36.925Z,18.65
2019-03-22T16:27:46.115Z,18.57
2019-03-22T16:30:52.593Z,18.71
2019-03-22T16:33:59.008Z,18.74
2019-03-22T16:37:05.703Z,18.65
2019-03-22T16:40:13.197Z,18.64
2019-03-22T16:43:19.751Z,18.52
2019-03-22T16:46:26.280Z,18.47
2019-03-22T16:49:32.894Z,18.35
2019-03-22T16:52:39.394Z,18.45
2019-03-22T16:55:45.995Z,18.32
2019-03-22T16:58:52.620Z,18.18
2019-03-22T17:01:59.090Z,18.25
2019-03-22T17:05:06.115Z,18.34
2019-03-22T17:08:12.757Z,18.12
2019-03-22T17:11:19.216Z,18.13
2019-03-22T17:14:25.669Z,18.23
2019-03-22T17:17:32.164Z,18.21
2019-03-22T17:20:38.621Z,18.10
2019-03-22T17:23:45.321Z,18.03
2019-03-22T17:26:51.859Z,17.88
2019-03-22T17:29:58.433Z,17.64
2019-03-22T17:33:04.956Z,17.79
2019-03-22T17:36:11.501Z,17.49
2019-03-22T17:39:17.953Z,17.52
2019-03-22T17:42:24.543Z,17.36
2019-03-22T17:45:30.994Z,17.47
2019-03-22T17:48:37.513Z,17.34
2019-03-22T17:51:44.096Z,17.40
2019-03-22T17:54:50.677Z,17.14
2019-03-22T17:57:57.164Z,17.11
2019-03-22T18:01:03.729Z,17.16
2019-03-22T18:04:11.408Z,17.01
2019-03-22T18:07:17.977Z,16.87
2019-03-22T18:10:24.537Z,17.03
2019-03-22T18:13:31.090Z,16.96
2019-03-22T18:16:37.618Z,16.86
2019-03-22T18:19:44.076Z,17.09
2019-03-22T18:22:50.695Z,17.00
2019-03-22T18:25:57.259Z,16.95
2019-03-22T18:29:03.737Z,16.78
2019-03-22T18:32:10.196Z,16.79
2019-03-22T18:35:16.794Z,16.69
2019-03-22T18:38:23.303Z,16.85
2019-03-22T18:41:29.737Z,16.97
2019-03-22T18:44:36.329Z,16.70
2019-03-22T18:47:42.951Z,16.76
2019-03-22T18:50:56.829Z,16.68
2019-03-22T18:53:57.627Z,16.65
2019-03-22T18:57:04.122Z,16.70
2019-03-22T19:00:11.815Z,16.92
2019-03-22T19:03:18.397Z,17.03
2019-03-22T19:06:24.917Z,17.12
2019-03-22T19:09:31.390Z,17.13
2019-03-22T19:12:37.922Z,16.89
2019-03-22T19:15:44.371Z,17.01
2019-03-22T19:18:50.872Z,16.77
2019-03-22T19:21:57.305Z,16.98
2019-03-22T19:25:03.930Z,16.93
2019-03-22T19:28:10.490Z,16.74
2019-03-22T19:31:17.551Z,16.77
2019-03-22T19:35:06.824Z,16.53
2019-03-22T19:38:48.649Z,16.66
2019-03-22T19:41:55.175Z,16.71
2019-03-22T19:45:01.645Z,16.87
2019-03-22T19:48:08.134Z,16.79
2019-03-22T19:51:14.605Z,16.86
2019-03-22T19:54:21.080Z,16.65
2019-03-22T19:57:27.513Z,16.79
2019-03-22T20:00:33.953Z,16.80
2019-03-22T20:03:40.408Z,16.78
2019-03-22T20:06:46.851Z,16.69
2019-03-22T20:09:53.351Z,16.69
2019-03-22T20:12:59.922Z,16.57
2019-03-22T20:16:07.109Z,16.52
2019-03-22T20:19:13.685Z,16.53
2019-03-22T20:22:20.125Z,16.51
2019-03-22T20:25:26.584Z,16.38
2019-03-22T20:28:33.042Z,16.18
2019-03-22T20:31:39.676Z,16.08
2019-03-22T20:34:47.131Z,16.01
2019-03-22T20:37:53.565Z,14.95
2019-03-22T20:41:00.055Z,15.49
2019-03-22T20:44:06.669Z,15.83
2019-03-22T20:47:13.252Z,15.91
2019-03-22T20:50:19.852Z,15.99
2019-03-22T20:53:26.427Z,15.67
2019-03-22T20:56:32.902Z,15.87
2019-03-22T20:59:39.336Z,15.29
2019-03-22T21:02:45.846Z,15.31
2019-03-22T21:05:52.405Z,15.51
2019-03-22T21:08:58.847Z,15.74
2019-03-22T21:12:05.393Z,15.70
2019-03-22T21:15:11.943Z,15.79
2019-03-22T21:18:18.295Z,15.72
2019-03-22T21:21:35.665Z,15.60
2019-03-22T21:24:32.875Z,15.20
2019-03-22T21:27:39.226Z,15.44
2019-03-22T21:30:45.533Z,15.35
2019-03-22T21:33:51.887Z,15.56
2019-03-22T21:36:58.205Z,15.72
2019-03-22T21:40:04.758Z,15.81
2019-03-22T21:43:11.103Z,15.92
2019-03-22T21:46:17.356Z,15.88
2019-03-22T21:49:23.775Z,15.80
2019-03-22T21:52:30.104Z,15.86
2019-03-22T21:55:36.434Z,15.38
2019-03-22T21:58:42.807Z,15.49
2019-03-22T22:01:49.115Z,15.44
2019-03-22T22:04:55.483Z,15.57
2019-03-22T22:08:01.756Z,15.53
2019-03-22T22:11:08.184Z,15.50
2019-03-22T22:14:14.666Z,15.51
2019-03-22T22:17:21.035Z,15.63
2019-03-22T22:20:29.145Z,15.65
2019-03-22T22:23:35.341Z,15.64
2019-03-22T22:26:41.613Z,15.63
2019-03-22T22:29:47.924Z,15.55
2019-03-22T22:32:54.307Z,15.53
2019-03-22T22:36:00.583Z,15.55
2019-03-22T22:39:08.007Z,15.44
2019-03-22T22:42:15.376Z,15.41
2019-03-22T22:45:21.667Z,15.44
2019-03-22T22:48:28.045Z,15.31
2019-03-22T22:51:34.393Z,15.28
2019-03-22T22:54:40.671Z,15.15
2019-03-22T22:57:47.105Z,15.09
2019-03-22T23:00:53.589Z,14.81
2019-03-22T23:04:01.459Z,14.97
2019-03-22T23:07:08.031Z,14.85
2019-03-22T23:10:14.737Z,14.97
2019-03-22T23:13:20.998Z,14.93
2019-03-22T23:16:27.260Z,15.02
2019-03-22T23:19:33.783Z,14.95
2019-03-22T23:22:40.240Z,14.93
2019-03-22T23:25:46.526Z,14.79
2019-03-22T23:28:52.824Z,14.72
2019-03-22T23:31:59.121Z,14.80
2019-03-22T23:35:06.564Z,14.88
2019-03-22T23:38:12.861Z,14.80
2019-03-22T23:41:19.181Z,14.71
2019-03-22T23:44:25.468Z,14.74
2019-03-22T23:47:31.806Z,14.79
2019-03-22T23:50:38.130Z,14.89
2019-03-22T23:53:44.382Z,14.87
2019-03-22T23:56:50.646Z,14.76
2019-03-22T23:59:56.964Z,14.55
